sensor_id;sensor_type;location;lat;lon;timestamp;P1;P2;P0
37290;PMS5003;23175;-33.706;151.094;2023-04-03T00:02:13;7;4;
37290;PMS5003;23175;-33.706;151.094;2023-04-03T00:04:43;3;2;
37290;PMS5003;23175;-33.706;151.094;2023-04-03T00:07:13;3;3;
37290;PMS5003;23175;-33.706;151.094;2023-04-03T00:09:44;2;2;
37290;PMS5003;23175;-33.706;151.094;2023-04-03T00:12:15;3;3;
37290;PMS5003;23175;-33.706;151.094;2023-04-03T00:14:45;2;2;
37290;PMS5003;23175;-33.706;151.094;2023-04-03T00:17:14;9;5;
37290;PMS5003;23175;-33.706;151.094;2023-04-03T00:19:45;5;3;
37290;PMS5003;23175;-33.706;151.094;2023-04-03T00:22:14;2;2;
37290;PMS5003;23175;-33.706;151.094;2023-04-03T00:24:45;2;2;
37290;PMS5003;23175;-33.706;151.094;2023-04-03T00:27:15;4;4;
37290;PMS5003;23175;-33.706;151.094;2023-04-03T00:29:46;2;2;
37290;PMS5003;23175;-33.706;151.094;2023-04-03T00:32:16;0;0;
37290;PMS5003;23175;-33.706;151.094;2023-04-03T00:34:45;7;3;
37290;PMS5003;23175;-33.706;151.094;2023-04-03T00:37:16;1;0;
37290;PMS5003;23175;-33.706;151.094;2023-04-03T00:39:46;2;2;
37290;PMS5003;23175;-33.706;151.094;2023-04-03T00:42:17;3;3;
37290;PMS5003;23175;-33.706;151.094;2023-04-03T00:45:52;2;2;
37290;PMS5003;23175;-33.706;151.094;2023-04-03T00:48:26;1;1;
37290;PMS5003;23175;-33.706;151.094;2023-04-03T00:50:59;3;1;
37290;PMS5003;23175;-33.706;151.094;2023-04-03T00:53:31;6;3;
37290;PMS5003;23175;-33.706;151.094;2023-04-03T00:56:06;2;2;
37290;PMS5003;23175;-33.706;151.094;2023-04-03T00:58:42;1;0;
37290;PMS5003;23175;-33.706;151.094;2023-04-03T01:01:17;2;2;
37290;PMS5003;23175;-33.706;151.094;2023-04-03T01:03:50;0;0;
37290;PMS5003;23175;-33.706;151.094;2023-04-03T01:06:21;2;2;
37290;PMS5003;23175;-33.706;151.094;2023-04-03T01:08:55;0;0;
37290;PMS5003;23175;-33.706;151.094;2023-04-03T01:11:26;2;2;
37290;PMS5003;23175;-33.706;151.094;2023-04-03T01:13:57;3;2;
37290;PMS5003;23175;-33.706;151.094;2023-04-03T01:16:27;1;1;
37290;PMS5003;23175;-33.706;151.094;2023-04-03T01:18:57;1;1;
37290;PMS5003;23175;-33.706;151.094;2023-04-03T01:21:40;2;2;
37290;PMS5003;23175;-33.706;151.094;2023-04-03T01:24:30;2;2;
37290;PMS5003;23175;-33.706;151.094;2023-04-03T01:27:04;0;0;
37290;PMS5003;23175;-33.706;151.094;2023-04-03T01:29:37;0;0;
37290;PMS5003;23175;-33.706;151.094;2023-04-03T01:32:08;2;1;
37290;PMS5003;23175;-33.706;151.094;2023-04-03T01:34:39;2;1;
37290;PMS5003;23175;-33.706;151.094;2023-04-03T01:37:09;0;0;
37290;PMS5003;23175;-33.706;151.094;2023-04-03T01:39:39;3;0;
37290;PMS5003;23175;-33.706;151.094;2023-04-03T01:42:10;1;0;
37290;PMS5003;23175;-33.706;151.094;2023-04-03T01:44:40;0;0;
37290;PMS5003;23175;-33.706;151.094;2023-04-03T01:47:11;1;1;
37290;PMS5003;23175;-33.706;151.094;2023-04-03T01:49:41;1;1;
37290;PMS5003;23175;-33.706;151.094;2023-04-03T01:52:11;4;2;
37290;PMS5003;23175;-33.706;151.094;2023-04-03T01:54:42;4;1;
37290;PMS5003;23175;-33.706;151.094;2023-04-03T01:57:12;2;2;
37290;PMS5003;23175;-33.706;151.094;2023-04-03T01:59:42;2;2;
37290;PMS5003;23175;-33.706;151.094;2023-04-03T02:02:13;3;2;
37290;PMS5003;23175;-33.706;151.094;2023-04-03T02:04:42;1;1;
37290;PMS5003;23175;-33.706;151.094;2023-04-03T02:07:12;2;1;
37290;PMS5003;23175;-33.706;151.094;2023-04-03T02:09:42;1;1;
37290;PMS5003;23175;-33.706;151.094;2023-04-03T02:12:13;1;1;
37290;PMS5003;23175;-33.706;151.094;2023-04-03T02:14:43;2;2;
37290;PMS5003;23175;-33.706;151.094;2023-04-03T02:17:13;1;0;
37290;PMS5003;23175;-33.706;151.094;2023-04-03T02:19:43;2;2;
37290;PMS5003;23175;-33.706;151.094;2023-04-03T02:22:13;0;0;
37290;PMS5003;23175;-33.706;151.094;2023-04-03T02:24:43;2;2;
37290;PMS5003;23175;-33.706;151.094;2023-04-03T02:27:14;4;1;
37290;PMS5003;23175;-33.706;151.094;2023-04-03T02:29:43;1;1;
37290;PMS5003;23175;-33.706;151.094;2023-04-03T02:32:14;4;2;
37290;PMS5003;23175;-33.706;151.094;2023-04-03T02:34:44;2;1;
37290;PMS5003;23175;-33.706;151.094;2023-04-03T02:37:14;1;1;
37290;PMS5003;23175;-33.706;151.094;2023-04-03T02:39:45;2;2;
37290;PMS5003;23175;-33.706;151.094;2023-04-03T02:42:15;2;1;
37290;PMS5003;23175;-33.706;151.094;2023-04-03T02:44:46;4;2;
37290;PMS5003;23175;-33.706;151.094;2023-04-03T02:47:16;2;2;
37290;PMS5003;23175;-33.706;151.094;2023-04-03T02:49:46;2;1;
37290;PMS5003;23175;-33.706;151.094;2023-04-03T02:52:16;2;2;
37290;PMS5003;23175;-33.706;151.094;2023-04-03T02:54:47;1;1;
37290;PMS5003;23175;-33.706;151.094;2023-04-03T02:57:17;1;1;
37290;PMS5003;23175;-33.706;151.094;2023-04-03T02:59:47;2;2;
37290;PMS5003;23175;-33.706;151.094;2023-04-03T03:02:17;1;1;
37290;PMS5003;23175;-33.706;151.094;2023-04-03T03:04:48;4;2;
37290;PMS5003;23175;-33.706;151.094;2023-04-03T03:07:18;1;1;
37290;PMS5003;23175;-33.706;151.094;2023-04-03T03:09:48;1;1;
37290;PMS5003;23175;-33.706;151.094;2023-04-03T03:12:20;4;1;
37290;PMS5003;23175;-33.706;151.094;2023-04-03T03:14:50;4;3;
37290;PMS5003;23175;-33.706;151.094;2023-04-03T03:17:20;3;1;
37290;PMS5003;23175;-33.706;151.094;2023-04-03T03:19:50;0;0;
37290;PMS5003;23175;-33.706;151.094;2023-04-03T03:22:21;0;0;
37290;PMS5003;23175;-33.706;151.094;2023-04-03T03:24:51;0;0;
37290;PMS5003;23175;-33.706;151.094;2023-04-03T03:27:22;2;2;
37290;PMS5003;23175;-33.706;151.094;2023-04-03T03:29:52;1;1;
37290;PMS5003;23175;-33.706;151.094;2023-04-03T03:32:22;1;1;
37290;PMS5003;23175;-33.706;151.094;2023-04-03T03:34:52;1;1;
37290;PMS5003;23175;-33.706;151.094;2023-04-03T03:37:22;0;0;
37290;PMS5003;23175;-33.706;151.094;2023-04-03T03:39:52;3;3;
37290;PMS5003;23175;-33.706;151.094;2023-04-03T03:42:23;1;1;
37290;PMS5003;23175;-33.706;151.094;2023-04-03T03:44:53;2;0;
37290;PMS5003;23175;-33.706;151.094;2023-04-03T03:47:23;4;2;
37290;PMS5003;23175;-33.706;151.094;2023-04-03T03:49:53;1;1;
37290;PMS5003;23175;-33.706;151.094;2023-04-03T03:52:24;3;1;
37290;PMS5003;23175;-33.706;151.094;2023-04-03T03:54:54;3;1;
37290;PMS5003;23175;-33.706;151.094;2023-04-03T03:57:25;3;3;
37290;PMS5003;23175;-33.706;151.094;2023-04-03T03:59:55;0;0;
37290;PMS5003;23175;-33.706;151.094;2023-04-03T04:02:25;3;1;
37290;PMS5003;23175;-33.706;151.094;2023-04-03T04:04:57;2;2;
37290;PMS5003;23175;-33.706;151.094;2023-04-03T04:07:27;2;1;
37290;PMS5003;23175;-33.706;151.094;2023-04-03T04:09:57;2;2;
37290;PMS5003;23175;-33.706;151.094;2023-04-03T04:12:28;1;1;
37290;PMS5003;23175;-33.706;151.094;2023-04-03T04:14:59;1;1;
37290;PMS5003;23175;-33.706;151.094;2023-04-03T04:17:29;3;2;
37290;PMS5003;23175;-33.706;151.094;2023-04-03T04:20:00;0;0;
37290;PMS5003;23175;-33.706;151.094;2023-04-03T04:22:30;2;1;
37290;PMS5003;23175;-33.706;151.094;2023-04-03T04:24:59;1;0;
37290;PMS5003;23175;-33.706;151.094;2023-04-03T04:27:30;3;2;
37290;PMS5003;23175;-33.706;151.094;2023-04-03T04:30:00;0;0;
37290;PMS5003;23175;-33.706;151.094;2023-04-03T04:32:30;1;0;
37290;PMS5003;23175;-33.706;151.094;2023-04-03T04:35:00;3;0;
37290;PMS5003;23175;-33.706;151.094;2023-04-03T04:37:31;4;2;
37290;PMS5003;23175;-33.706;151.094;2023-04-03T04:40:01;2;2;
37290;PMS5003;23175;-33.706;151.094;2023-04-03T04:42:31;1;1;
37290;PMS5003;23175;-33.706;151.094;2023-04-03T04:45:01;2;1;
37290;PMS5003;23175;-33.706;151.094;2023-04-03T04:47:32;1;1;
37290;PMS5003;23175;-33.706;151.094;2023-04-03T04:50:02;3;3;
37290;PMS5003;23175;-33.706;151.094;2023-04-03T04:52:33;5;2;
37290;PMS5003;23175;-33.706;151.094;2023-04-03T04:55:03;3;3;
37290;PMS5003;23175;-33.706;151.094;2023-04-03T04:57:34;5;1;
37290;PMS5003;23175;-33.706;151.094;2023-04-03T05:00:04;0;0;
37290;PMS5003;23175;-33.706;151.094;2023-04-03T05:02:35;3;1;
37290;PMS5003;23175;-33.706;151.094;2023-04-03T05:05:05;4;1;
37290;PMS5003;23175;-33.706;151.094;2023-04-03T05:07:36;2;0;
37290;PMS5003;23175;-33.706;151.094;2023-04-03T05:10:07;5;1;
37290;PMS5003;23175;-33.706;151.094;2023-04-03T05:12:39;1;1;
37290;PMS5003;23175;-33.706;151.094;2023-04-03T05:15:10;3;1;
37290;PMS5003;23175;-33.706;151.094;2023-04-03T05:17:41;0;0;
37290;PMS5003;23175;-33.706;151.094;2023-04-03T05:20:11;2;0;
37290;PMS5003;23175;-33.706;151.094;2023-04-03T05:22:41;2;2;
37290;PMS5003;23175;-33.706;151.094;2023-04-03T05:25:12;1;0;
37290;PMS5003;23175;-33.706;151.094;2023-04-03T05:27:42;3;0;
37290;PMS5003;23175;-33.706;151.094;2023-04-03T05:30:13;0;0;
37290;PMS5003;23175;-33.706;151.094;2023-04-03T05:32:44;3;1;
37290;PMS5003;23175;-33.706;151.094;2023-04-03T05:35:16;1;0;
37290;PMS5003;23175;-33.706;151.094;2023-04-03T05:37:46;1;1;
37290;PMS5003;23175;-33.706;151.094;2023-04-03T05:40:17;6;2;
37290;PMS5003;23175;-33.706;151.094;2023-04-03T05:42:47;3;0;
37290;PMS5003;23175;-33.706;151.094;2023-04-03T05:45:17;2;2;
37290;PMS5003;23175;-33.706;151.094;2023-04-03T05:47:48;1;0;
37290;PMS5003;23175;-33.706;151.094;2023-04-03T05:50:18;6;3;
37290;PMS5003;23175;-33.706;151.094;2023-04-03T05:52:49;1;1;
37290;PMS5003;23175;-33.706;151.094;2023-04-03T05:55:20;2;0;
37290;PMS5003;23175;-33.706;151.094;2023-04-03T05:57:50;1;1;
37290;PMS5003;23175;-33.706;151.094;2023-04-03T06:00:21;2;0;
37290;PMS5003;23175;-33.706;151.094;2023-04-03T06:02:51;4;3;
37290;PMS5003;23175;-33.706;151.094;2023-04-03T06:05:21;3;3;
37290;PMS5003;23175;-33.706;151.094;2023-04-03T06:07:51;2;2;
37290;PMS5003;23175;-33.706;151.094;2023-04-03T06:10:21;1;1;
37290;PMS5003;23175;-33.706;151.094;2023-04-03T06:12:52;5;3;
37290;PMS5003;23175;-33.706;151.094;2023-04-03T06:15:22;4;1;
37290;PMS5003;23175;-33.706;151.094;2023-04-03T06:17:52;6;0;
37290;PMS5003;23175;-33.706;151.094;2023-04-03T06:20:21;4;4;
37290;PMS5003;23175;-33.706;151.094;2023-04-03T06:22:51;4;4;
37290;PMS5003;23175;-33.706;151.094;2023-04-03T06:25:21;1;1;
37290;PMS5003;23175;-33.706;151.094;2023-04-03T06:27:52;3;0;
37290;PMS5003;23175;-33.706;151.094;2023-04-03T06:30:22;1;1;
37290;PMS5003;23175;-33.706;151.094;2023-04-03T06:32:52;2;2;
37290;PMS5003;23175;-33.706;151.094;2023-04-03T06:35:22;1;0;
37290;PMS5003;23175;-33.706;151.094;2023-04-03T06:37:53;0;0;
37290;PMS5003;23175;-33.706;151.094;2023-04-03T06:40:24;2;1;
37290;PMS5003;23175;-33.706;151.094;2023-04-03T06:42:54;1;1;
37290;PMS5003;23175;-33.706;151.094;2023-04-03T06:45:24;0;0;
37290;PMS5003;23175;-33.706;151.094;2023-04-03T06:47:55;2;1;
37290;PMS5003;23175;-33.706;151.094;2023-04-03T06:50:25;2;2;
37290;PMS5003;23175;-33.706;151.094;2023-04-03T06:52:55;5;5;
37290;PMS5003;23175;-33.706;151.094;2023-04-03T06:55:25;0;0;
37290;PMS5003;23175;-33.706;151.094;2023-04-03T06:57:55;3;2;
37290;PMS5003;23175;-33.706;151.094;2023-04-03T07:00:25;2;2;
37290;PMS5003;23175;-33.706;151.094;2023-04-03T07:02:56;1;1;
37290;PMS5003;23175;-33.706;151.094;2023-04-03T07:05:26;5;2;
37290;PMS5003;23175;-33.706;151.094;2023-04-03T07:07:57;2;2;
37290;PMS5003;23175;-33.706;151.094;2023-04-03T07:10:27;4;2;
37290;PMS5003;23175;-33.706;151.094;2023-04-03T07:12:58;4;3;
37290;PMS5003;23175;-33.706;151.094;2023-04-03T07:15:28;1;1;
37290;PMS5003;23175;-33.706;151.094;2023-04-03T07:17:58;3;1;
37290;PMS5003;23175;-33.706;151.094;2023-04-03T07:20:29;0;0;
37290;PMS5003;23175;-33.706;151.094;2023-04-03T07:22:59;2;2;
37290;PMS5003;23175;-33.706;151.094;2023-04-03T07:25:29;1;1;
37290;PMS5003;23175;-33.706;151.094;2023-04-03T07:28:00;1;1;
37290;PMS5003;23175;-33.706;151.094;2023-04-03T07:30:30;0;0;
37290;PMS5003;23175;-33.706;151.094;2023-04-03T07:33:00;4;4;
37290;PMS5003;23175;-33.706;151.094;2023-04-03T07:35:30;2;1;
37290;PMS5003;23175;-33.706;151.094;2023-04-03T07:38:00;2;2;
37290;PMS5003;23175;-33.706;151.094;2023-04-03T07:40:31;2;2;
37290;PMS5003;23175;-33.706;151.094;2023-04-03T07:43:01;4;3;
37290;PMS5003;23175;-33.706;151.094;2023-04-03T07:45:32;3;3;
37290;PMS5003;23175;-33.706;151.094;2023-04-03T07:48:03;1;1;
37290;PMS5003;23175;-33.706;151.094;2023-04-03T07:50:33;3;1;
37290;PMS5003;23175;-33.706;151.094;2023-04-03T07:53:03;4;2;
37290;PMS5003;23175;-33.706;151.094;2023-04-03T07:55:34;4;2;
37290;PMS5003;23175;-33.706;151.094;2023-04-03T07:58:04;7;2;
37290;PMS5003;23175;-33.706;151.094;2023-04-03T08:00:34;3;3;
37290;PMS5003;23175;-33.706;151.094;2023-04-03T08:03:03;1;1;
37290;PMS5003;23175;-33.706;151.094;2023-04-03T08:05:36;2;2;
37290;PMS5003;23175;-33.706;151.094;2023-04-03T08:08:07;7;2;
37290;PMS5003;23175;-33.706;151.094;2023-04-03T08:10:38;1;1;
37290;PMS5003;23175;-33.706;151.094;2023-04-03T08:13:09;1;1;
37290;PMS5003;23175;-33.706;151.094;2023-04-03T08:15:40;3;2;
37290;PMS5003;23175;-33.706;151.094;2023-04-03T08:18:10;2;2;
37290;PMS5003;23175;-33.706;151.094;2023-04-03T08:20:41;2;1;
37290;PMS5003;23175;-33.706;151.094;2023-04-03T08:23:12;2;1;
37290;PMS5003;23175;-33.706;151.094;2023-04-03T08:25:43;1;1;
37290;PMS5003;23175;-33.706;151.094;2023-04-03T08:28:13;3;3;
37290;PMS5003;23175;-33.706;151.094;2023-04-03T08:30:43;3;2;
37290;PMS5003;23175;-33.706;151.094;2023-04-03T08:33:13;7;5;
37290;PMS5003;23175;-33.706;151.094;2023-04-03T08:35:43;2;2;
37290;PMS5003;23175;-33.706;151.094;2023-04-03T08:38:13;2;2;
37290;PMS5003;23175;-33.706;151.094;2023-04-03T08:40:43;2;2;
37290;PMS5003;23175;-33.706;151.094;2023-04-03T08:43:20;4;3;
37290;PMS5003;23175;-33.706;151.094;2023-04-03T08:46:00;3;3;
37290;PMS5003;23175;-33.706;151.094;2023-04-03T08:48:34;5;3;
37290;PMS5003;23175;-33.706;151.094;2023-04-03T08:51:11;1;0;
37290;PMS5003;23175;-33.706;151.094;2023-04-03T08:53:46;4;4;
37290;PMS5003;23175;-33.706;151.094;2023-04-03T08:56:24;5;5;
37290;PMS5003;23175;-33.706;151.094;2023-04-03T08:58:57;7;3;
37290;PMS5003;23175;-33.706;151.094;2023-04-03T09:01:33;9;7;
37290;PMS5003;23175;-33.706;151.094;2023-04-03T09:04:09;3;3;
37290;PMS5003;23175;-33.706;151.094;2023-04-03T09:06:43;6;6;
37290;PMS5003;23175;-33.706;151.094;2023-04-03T09:09:21;4;2;
37290;PMS5003;23175;-33.706;151.094;2023-04-03T09:12:00;3;3;
37290;PMS5003;23175;-33.706;151.094;2023-04-03T09:14:41;5;3;
37290;PMS5003;23175;-33.706;151.094;2023-04-03T09:17:20;10;7;
37290;PMS5003;23175;-33.706;151.094;2023-04-03T09:19:58;2;2;
37290;PMS5003;23175;-33.706;151.094;2023-04-03T09:22:38;4;4;
37290;PMS5003;23175;-33.706;151.094;2023-04-03T09:25:11;6;6;
37290;PMS5003;23175;-33.706;151.094;2023-04-03T09:27:44;8;8;
37290;PMS5003;23175;-33.706;151.094;2023-04-03T09:30:15;9;6;
37290;PMS5003;23175;-33.706;151.094;2023-04-03T09:32:49;5;5;
37290;PMS5003;23175;-33.706;151.094;2023-04-03T09:35:21;6;4;
37290;PMS5003;23175;-33.706;151.094;2023-04-03T09:37:58;5;4;
37290;PMS5003;23175;-33.706;151.094;2023-04-03T09:40:33;3;3;
37290;PMS5003;23175;-33.706;151.094;2023-04-03T09:43:29;7;4;
37290;PMS5003;23175;-33.706;151.094;2023-04-03T09:46:16;2;2;
37290;PMS5003;23175;-33.706;151.094;2023-04-03T09:48:52;1;1;
37290;PMS5003;23175;-33.706;151.094;2023-04-03T09:51:27;5;5;
37290;PMS5003;23175;-33.706;151.094;2023-04-03T09:53:58;5;2;
37290;PMS5003;23175;-33.706;151.094;2023-04-03T09:56:28;3;3;
37290;PMS5003;23175;-33.706;151.094;2023-04-03T09:59:14;2;2;
37290;PMS5003;23175;-33.706;151.094;2023-04-03T10:01:55;9;7;
37290;PMS5003;23175;-33.706;151.094;2023-04-03T10:04:28;1;1;
37290;PMS5003;23175;-33.706;151.094;2023-04-03T10:07:26;0;0;
37290;PMS5003;23175;-33.706;151.094;2023-04-03T10:10:00;2;1;
37290;PMS5003;23175;-33.706;151.094;2023-04-03T10:12:44;4;2;
37290;PMS5003;23175;-33.706;151.094;2023-04-03T10:15:15;4;3;
37290;PMS5003;23175;-33.706;151.094;2023-04-03T10:17:50;2;2;
37290;PMS5003;23175;-33.706;151.094;2023-04-03T10:20:29;1;1;
37290;PMS5003;23175;-33.706;151.094;2023-04-03T10:23:05;2;2;
37290;PMS5003;23175;-33.706;151.094;2023-04-03T10:25:47;4;2;
37290;PMS5003;23175;-33.706;151.094;2023-04-03T10:28:27;2;2;
37290;PMS5003;23175;-33.706;151.094;2023-04-03T10:31:05;4;1;
37290;PMS5003;23175;-33.706;151.094;2023-04-03T10:33:46;2;2;
37290;PMS5003;23175;-33.706;151.094;2023-04-03T10:36:27;6;4;
37290;PMS5003;23175;-33.706;151.094;2023-04-03T10:39:08;8;8;
37290;PMS5003;23175;-33.706;151.094;2023-04-03T10:41:51;3;1;
37290;PMS5003;23175;-33.706;151.094;2023-04-03T10:44:31;3;3;
37290;PMS5003;23175;-33.706;151.094;2023-04-03T10:47:11;7;6;
37290;PMS5003;23175;-33.706;151.094;2023-04-03T10:49:49;6;6;
37290;PMS5003;23175;-33.706;151.094;2023-04-03T10:52:29;6;5;
37290;PMS5003;23175;-33.706;151.094;2023-04-03T10:55:09;3;3;
37290;PMS5003;23175;-33.706;151.094;2023-04-03T10:57:53;3;2;
37290;PMS5003;23175;-33.706;151.094;2023-04-03T11:00:26;2;2;
37290;PMS5003;23175;-33.706;151.094;2023-04-03T11:03:05;4;2;
37290;PMS5003;23175;-33.706;151.094;2023-04-03T11:05:40;3;2;
37290;PMS5003;23175;-33.706;151.094;2023-04-03T11:08:15;1;1;
37290;PMS5003;23175;-33.706;151.094;2023-04-03T11:10:56;3;2;
37290;PMS5003;23175;-33.706;151.094;2023-04-03T11:13:30;5;3;
37290;PMS5003;23175;-33.706;151.094;2023-04-03T11:16:05;2;1;
37290;PMS5003;23175;-33.706;151.094;2023-04-03T11:18:37;1;1;
37290;PMS5003;23175;-33.706;151.094;2023-04-03T11:21:16;1;1;
37290;PMS5003;23175;-33.706;151.094;2023-04-03T11:23:51;3;1;
37290;PMS5003;23175;-33.706;151.094;2023-04-03T11:26:24;2;2;
37290;PMS5003;23175;-33.706;151.094;2023-04-03T11:29:01;3;1;
37290;PMS5003;23175;-33.706;151.094;2023-04-03T11:31:38;2;2;
37290;PMS5003;23175;-33.706;151.094;2023-04-03T11:34:26;1;1;
37290;PMS5003;23175;-33.706;151.094;2023-04-03T11:37:03;1;0;
37290;PMS5003;23175;-33.706;151.094;2023-04-03T11:39:40;4;4;
37290;PMS5003;23175;-33.706;151.094;2023-04-03T11:42:24;2;2;
37290;PMS5003;23175;-33.706;151.094;2023-04-03T11:46:05;5;3;
37290;PMS5003;23175;-33.706;151.094;2023-04-03T11:48:53;2;2;
37290;PMS5003;23175;-33.706;151.094;2023-04-03T11:51:40;3;3;
37290;PMS5003;23175;-33.706;151.094;2023-04-03T11:56:30;7;4;
37290;PMS5003;23175;-33.706;151.094;2023-04-03T11:59:19;6;3;
37290;PMS5003;23175;-33.706;151.094;2023-04-03T12:01:52;5;5;
37290;PMS5003;23175;-33.706;151.094;2023-04-03T12:04:24;3;3;
37290;PMS5003;23175;-33.706;151.094;2023-04-03T12:07:13;4;4;
37290;PMS5003;23175;-33.706;151.094;2023-04-03T12:09:58;4;4;
37290;PMS5003;23175;-33.706;151.094;2023-04-03T12:12:38;6;4;
37290;PMS5003;23175;-33.706;151.094;2023-04-03T12:15:26;4;1;
37290;PMS5003;23175;-33.706;151.094;2023-04-03T12:21:01;2;2;
37290;PMS5003;23175;-33.706;151.094;2023-04-03T12:23:32;6;3;
37290;PMS5003;23175;-33.706;151.094;2023-04-03T12:26:04;3;2;
37290;PMS5003;23175;-33.706;151.094;2023-04-03T12:28:49;0;0;
37290;PMS5003;23175;-33.706;151.094;2023-04-03T12:31:22;1;0;
37290;PMS5003;23175;-33.706;151.094;2023-04-03T12:34:07;4;2;
37290;PMS5003;23175;-33.706;151.094;2023-04-03T12:36:54;2;2;
37290;PMS5003;23175;-33.706;151.094;2023-04-03T12:39:49;2;2;
37290;PMS5003;23175;-33.706;151.094;2023-04-03T12:42:29;3;2;
37290;PMS5003;23175;-33.706;151.094;2023-04-03T12:45:17;3;3;
37290;PMS5003;23175;-33.706;151.094;2023-04-03T12:47:50;4;4;
37290;PMS5003;23175;-33.706;151.094;2023-04-03T12:50:23;3;2;
37290;PMS5003;23175;-33.706;151.094;2023-04-03T12:52:57;1;1;
37290;PMS5003;23175;-33.706;151.094;2023-04-03T12:55:30;5;3;
37290;PMS5003;23175;-33.706;151.094;2023-04-03T12:58:13;5;5;
37290;PMS5003;23175;-33.706;151.094;2023-04-03T13:00:59;3;2;
37290;PMS5003;23175;-33.706;151.094;2023-04-03T13:03:30;4;2;
37290;PMS5003;23175;-33.706;151.094;2023-04-03T13:06:13;3;3;
37290;PMS5003;23175;-33.706;151.094;2023-04-03T13:08:51;1;1;
37290;PMS5003;23175;-33.706;151.094;2023-04-03T13:11:23;1;1;
37290;PMS5003;23175;-33.706;151.094;2023-04-03T13:13:57;4;4;
37290;PMS5003;23175;-33.706;151.094;2023-04-03T13:16:29;6;6;
37290;PMS5003;23175;-33.706;151.094;2023-04-03T13:19:00;8;8;
37290;PMS5003;23175;-33.706;151.094;2023-04-03T13:21:31;3;2;
37290;PMS5003;23175;-33.706;151.094;2023-04-03T13:24:03;1;1;
37290;PMS5003;23175;-33.706;151.094;2023-04-03T13:26:34;2;2;
37290;PMS5003;23175;-33.706;151.094;2023-04-03T13:29:05;5;4;
37290;PMS5003;23175;-33.706;151.094;2023-04-03T13:31:52;5;2;
37290;PMS5003;23175;-33.706;151.094;2023-04-03T13:34:24;1;1;
37290;PMS5003;23175;-33.706;151.094;2023-04-03T13:36:58;1;1;
37290;PMS5003;23175;-33.706;151.094;2023-04-03T13:39:29;3;2;
37290;PMS5003;23175;-33.706;151.094;2023-04-03T13:42:00;5;3;
37290;PMS5003;23175;-33.706;151.094;2023-04-03T13:44:42;2;1;
37290;PMS5003;23175;-33.706;151.094;2023-04-03T13:47:17;2;2;
37290;PMS5003;23175;-33.706;151.094;2023-04-03T13:50:00;2;2;
37290;PMS5003;23175;-33.706;151.094;2023-04-03T13:52:34;3;1;
37290;PMS5003;23175;-33.706;151.094;2023-04-03T13:55:16;0;0;
37290;PMS5003;23175;-33.706;151.094;2023-04-03T13:57:50;3;2;
37290;PMS5003;23175;-33.706;151.094;2023-04-03T14:00:33;4;3;
37290;PMS5003;23175;-33.706;151.094;2023-04-03T14:03:13;4;2;
37290;PMS5003;23175;-33.706;151.094;2023-04-03T14:05:48;4;2;
37290;PMS5003;23175;-33.706;151.094;2023-04-03T14:08:19;2;1;
37290;PMS5003;23175;-33.706;151.094;2023-04-03T14:10:50;4;3;
37290;PMS5003;23175;-33.706;151.094;2023-04-03T14:13:21;1;1;
37290;PMS5003;23175;-33.706;151.094;2023-04-03T14:15:52;3;2;
37290;PMS5003;23175;-33.706;151.094;2023-04-03T14:18:23;2;2;
37290;PMS5003;23175;-33.706;151.094;2023-04-03T14:20:53;4;4;
37290;PMS5003;23175;-33.706;151.094;2023-04-03T14:23:24;4;4;
37290;PMS5003;23175;-33.706;151.094;2023-04-03T14:25:54;5;5;
37290;PMS5003;23175;-33.706;151.094;2023-04-03T14:28:24;13;13;
37290;PMS5003;23175;-33.706;151.094;2023-04-03T14:30:58;7;7;
37290;PMS5003;23175;-33.706;151.094;2023-04-03T14:33:28;8;8;
37290;PMS5003;23175;-33.706;151.094;2023-04-03T14:35:58;12;10;
37290;PMS5003;23175;-33.706;151.094;2023-04-03T14:38:29;8;8;
37290;PMS5003;23175;-33.706;151.094;2023-04-03T14:41:03;7;6;
37290;PMS5003;23175;-33.706;151.094;2023-04-03T14:43:38;9;9;
37290;PMS5003;23175;-33.706;151.094;2023-04-03T14:46:11;7;7;
37290;PMS5003;23175;-33.706;151.094;2023-04-03T14:48:45;6;6;
37290;PMS5003;23175;-33.706;151.094;2023-04-03T14:51:15;5;5;
37290;PMS5003;23175;-33.706;151.094;2023-04-03T14:53:46;11;10;
37290;PMS5003;23175;-33.706;151.094;2023-04-03T14:56:18;7;7;
37290;PMS5003;23175;-33.706;151.094;2023-04-03T14:58:51;9;8;
37290;PMS5003;23175;-33.706;151.094;2023-04-03T15:01:26;14;13;
37290;PMS5003;23175;-33.706;151.094;2023-04-03T15:03:57;10;8;
37290;PMS5003;23175;-33.706;151.094;2023-04-03T15:06:28;11;9;
37290;PMS5003;23175;-33.706;151.094;2023-04-03T15:08:58;4;4;
37290;PMS5003;23175;-33.706;151.094;2023-04-03T15:11:28;5;4;
37290;PMS5003;23175;-33.706;151.094;2023-04-03T15:13:58;4;4;
37290;PMS5003;23175;-33.706;151.094;2023-04-03T15:16:28;4;4;
37290;PMS5003;23175;-33.706;151.094;2023-04-03T15:18:58;2;2;
37290;PMS5003;23175;-33.706;151.094;2023-04-03T15:21:28;4;4;
37290;PMS5003;23175;-33.706;151.094;2023-04-03T15:23:58;6;5;
37290;PMS5003;23175;-33.706;151.094;2023-04-03T15:26:29;4;4;
37290;PMS5003;23175;-33.706;151.094;2023-04-03T15:28:59;3;3;
37290;PMS5003;23175;-33.706;151.094;2023-04-03T15:31:29;4;4;
37290;PMS5003;23175;-33.706;151.094;2023-04-03T15:34:00;6;6;
37290;PMS5003;23175;-33.706;151.094;2023-04-03T15:36:30;10;7;
37290;PMS5003;23175;-33.706;151.094;2023-04-03T15:39:00;7;5;
37290;PMS5003;23175;-33.706;151.094;2023-04-03T15:41:31;9;7;
37290;PMS5003;23175;-33.706;151.094;2023-04-03T15:44:01;9;8;
37290;PMS5003;23175;-33.706;151.094;2023-04-03T15:46:31;11;11;
37290;PMS5003;23175;-33.706;151.094;2023-04-03T15:49:01;12;12;
37290;PMS5003;23175;-33.706;151.094;2023-04-03T15:51:32;10;9;
37290;PMS5003;23175;-33.706;151.094;2023-04-03T15:54:03;13;13;
37290;PMS5003;23175;-33.706;151.094;2023-04-03T15:56:33;8;7;
37290;PMS5003;23175;-33.706;151.094;2023-04-03T15:59:04;11;9;
37290;PMS5003;23175;-33.706;151.094;2023-04-03T16:01:34;9;6;
37290;PMS5003;23175;-33.706;151.094;2023-04-03T16:04:06;5;5;
37290;PMS5003;23175;-33.706;151.094;2023-04-03T16:06:37;6;6;
37290;PMS5003;23175;-33.706;151.094;2023-04-03T16:09:09;5;5;
37290;PMS5003;23175;-33.706;151.094;2023-04-03T16:11:40;14;14;
37290;PMS5003;23175;-33.706;151.094;2023-04-03T16:14:11;15;11;
37290;PMS5003;23175;-33.706;151.094;2023-04-03T16:16:41;5;4;
37290;PMS5003;23175;-33.706;151.094;2023-04-03T16:19:12;5;5;
37290;PMS5003;23175;-33.706;151.094;2023-04-03T16:21:42;8;6;
37290;PMS5003;23175;-33.706;151.094;2023-04-03T16:24:12;4;3;
37290;PMS5003;23175;-33.706;151.094;2023-04-03T16:26:43;5;4;
37290;PMS5003;23175;-33.706;151.094;2023-04-03T16:29:12;5;3;
37290;PMS5003;23175;-33.706;151.094;2023-04-03T16:31:43;4;4;
37290;PMS5003;23175;-33.706;151.094;2023-04-03T16:34:13;3;3;
37290;PMS5003;23175;-33.706;151.094;2023-04-03T16:36:44;5;3;
37290;PMS5003;23175;-33.706;151.094;2023-04-03T16:39:14;4;4;
37290;PMS5003;23175;-33.706;151.094;2023-04-03T16:41:44;5;4;
37290;PMS5003;23175;-33.706;151.094;2023-04-03T16:44:14;7;7;
37290;PMS5003;23175;-33.706;151.094;2023-04-03T16:46:44;5;4;